Airfield :
LOGIN :

Register | Disclaimer

   EN    FR    IT 

 










Legend :    VFR   Marginal VFR   IFR   Intensive IFR   Very Intensive IFR
Visi :
Ceiling :
>= 8 km
>= 3000ft
5 to 8 km
1000 to 3000 ft
1500m to 5 km
500 to 1000 ft
800 to 1500m
200 to 500 ft
< 800m
< 200 ft
Symbols :   Thunderstorms  Fog  Heavy snow  Heavy precipitations  Wind > 20 kt
SIGMETs :     Misc.  Thunderstorms  Icing  Turbulence  Mountain Waves  Volcanic Ashes






- Airport Elevation : 1959 ft
- IATA code : HOQ


EDQM - Hof Plauen

CURRENT METAR :
  • 061850Z 22012KT 9999 FEW042 01/M01 Q1011

EXPIRED METARs :
  • 061820Z 21013KT CAVOK 01/M01 Q1011
  • 061750Z 21016KT CAVOK 01/M01 Q1011
  • 061720Z 21014KT 9999 SCT020 01/M01 Q1012

TAF TAF EDQM
Valid from the 06 at 18:00 until the 07 at 03:00 UTC


061700Z 0618/0703 21011KT 9000 OVC012
BECMG 0618/0620 3500 BR OVC004
TEMPO 0620/0703 24015G25KT 1200 RADZ BKN001



MET'MAP, your aeronautical weather chart ! - Copyright ORBIFLY December 2007 - Disclaimer

ORBIFLY MET'MAP TEAM :

Programming & Development : Alexandra Zaïnal
Concept & original design : Baudouin d'Aumeries
Assistance for programming : Marc-Olivier Méhu
Technical & hardware support : Manuel Goepfert

Contact : metmap@orbifly.com




SOURCES & CREDITS :

   NOAA